Time;durP1;ratioP1;P1;durP2;ratioP2;P2;SDS_P1;SDS_P2;PMS_P1;PMS_P2;Temp;Humidity;BMP_temperature;BMP_pressure;BME280_temperature;BME280_humidity;BME280_pressure;Samples;Min_cycle;Max_cycle;Signal;HPM_P1;HPM_P2
2023/01/31 00:01:04;;;;;;;12.43;3.38;;;3.80;1.00;;;;;;5023195;28;20200;-85
2023/01/31 00:03:31;;;;;;;11.93;3.90;;;3.80;1.00;;;;;;5022089;28;20662;-84
2023/01/31 00:05:58;;;;;;;17.92;4.03;;;3.90;1.00;;;;;;5021665;28;20292;-84
2023/01/31 00:08:24;;;;;;;9.35;2.20;;;3.90;99.90;;;;;;5021305;28;20247;-85
2023/01/31 00:10:51;;;;;;;11.23;3.55;;;3.80;1.00;;;;;;5021672;28;20227;-85
2023/01/31 00:13:18;;;;;;;17.77;3.35;;;3.60;34.10;;;;;;5022331;28;20243;-85
2023/01/31 00:15:46;;;;;;;17.08;3.70;;;3.80;1.00;;;;;;5022352;28;20229;-83
2023/01/31 00:18:13;;;;;;;12.60;3.20;;;3.80;1.00;;;;;;5024801;28;20679;-84
2023/01/31 00:20:40;;;;;;;18.55;2.95;;;3.80;99.90;;;;;;5027914;28;20230;-85
2023/01/31 00:23:07;;;;;;;16.10;3.30;;;3.80;1.00;;;;;;5028135;28;20300;-85
2023/01/31 00:25:33;;;;;;;10.45;3.30;;;3.80;99.90;;;;;;5027030;28;20225;-84
2023/01/31 00:28:00;;;;;;;10.98;2.70;;;3.80;99.90;;;;;;5027634;28;20277;-84
2023/01/31 00:30:27;;;;;;;11.48;3.55;;;3.80;99.90;;;;;;5027728;28;20226;-84
2023/01/31 00:32:55;;;;;;;16.70;3.92;;;3.80;99.90;;;;;;5033750;28;20223;-84
2023/01/31 00:35:22;;;;;;;19.85;2.80;;;3.70;3.70;;;;;;5036822;28;20225;-82
2023/01/31 00:37:49;;;;;;;9.57;3.38;;;3.80;1.00;;;;;;5031408;28;20549;-83
2023/01/31 00:40:16;;;;;;;8.40;3.45;;;3.80;1.00;;;;;;5029726;28;20228;-84
2023/01/31 00:42:43;;;;;;;8.15;3.85;;;3.70;1.00;;;;;;5032801;28;20209;-84
2023/01/31 00:45:11;;;;;;;9.80;4.00;;;3.70;1.00;;;;;;5027572;28;20236;-85
2023/01/31 00:47:38;;;;;;;10.70;2.83;;;4.00;1.00;;;;;;5030802;28;20210;-85
2023/01/31 00:50:07;;;;;;;11.98;2.97;;;3.80;1.00;;;;;;5031879;28;20307;-85
2023/01/31 00:52:33;;;;;;;7.32;2.55;;;3.80;1.00;;;;;;5032562;28;20268;-84
2023/01/31 00:55:00;;;;;;;9.43;3.53;;;3.80;1.00;;;;;;5033420;28;20291;-83
2023/01/31 00:57:27;;;;;;;15.18;2.83;;;3.80;1.00;;;;;;5037197;28;20208;-83
2023/01/31 00:59:54;;;;;;;13.88;3.28;;;3.80;99.90;;;;;;5040185;28;20209;-83
2023/01/31 01:02:21;;;;;;;6.65;2.95;;;3.80;99.90;;;;;;5040359;28;20243;-82
2023/01/31 01:04:47;;;;;;;8.35;3.30;;;3.90;1.00;;;;;;5039488;28;20216;-84
2023/01/31 01:07:15;;;;;;;7.63;2.92;;;3.90;1.00;;;;;;5038653;28;20224;-84
2023/01/31 01:09:42;;;;;;;11.00;3.38;;;4.00;1.00;;;;;;5037491;28;20212;-82
2023/01/31 01:12:09;;;;;;;8.93;2.90;;;4.00;99.90;;;;;;5038516;28;20223;-82
2023/01/31 01:14:36;;;;;;;6.55;2.30;;;4.30;1.00;;;;;;5039543;28;20207;-83
2023/01/31 01:17:03;;;;;;;9.52;2.50;;;4.10;1.00;;;;;;5035122;28;20659;-84
2023/01/31 01:19:30;;;;;;;9.10;3.38;;;4.10;99.90;;;;;;5031345;28;20251;-84
2023/01/31 01:21:57;;;;;;;6.35;2.80;;;4.10;1.00;;;;;;5025481;28;20264;-84
2023/01/31 01:24:26;;;;;;;10.00;2.83;;;3.90;1.00;;;;;;5025016;28;20208;-84
2023/01/31 01:26:52;;;;;;;9.32;2.88;;;4.10;99.90;;;;;;5025409;28;20209;-85
2023/01/31 01:29:19;;;;;;;12.93;3.00;;;4.10;99.90;;;;;;5024541;28;20208;-84
2023/01/31 01:31:46;;;;;;;9.05;2.95;;;4.20;99.90;;;;;;5025599;28;20224;-84
2023/01/31 01:34:15;;;;;;;4.35;2.40;;;4.10;1.00;;;;;;5024878;28;20287;-84
2023/01/31 01:36:43;;;;;;;7.10;3.17;;;4.20;99.90;;;;;;5024782;28;20750;-83
2023/01/31 01:39:12;;;;;;;15.20;3.25;;;4.10;1.00;;;;;;5024039;28;20295;-84
2023/01/31 01:41:40;;;;;;;10.65;3.17;;;4.10;1.00;;;;;;5023877;28;20642;-86
2023/01/31 01:44:40;;;;;;;9.80;1.90;;;4.10;65.40;;;;;;5023782;28;20216;-85
2023/01/31 01:47:22;;;;;;;8.02;3.75;;;4.10;1.00;;;;;;5023538;28;20189;-84
2023/01/31 01:49:52;;;;;;;6.25;2.92;;;4.10;1.00;;;;;;5019875;28;20631;-84
2023/01/31 01:52:21;;;;;;;11.23;3.17;;;4.20;1.00;;;;;;5017243;28;20196;-84
2023/01/31 01:54:51;;;;;;;6.70;2.33;;;4.10;1.00;;;;;;5017008;28;20689;-84
2023/01/31 01:57:24;;;;;;;9.63;3.45;;;4.10;40.10;;;;;;5018568;28;20189;-84
2023/01/31 01:59:59;;;;;;;8.43;2.58;;;4.20;1.00;;;;;;5019481;28;20268;-85
2023/01/31 02:02:26;;;;;;;4.30;2.83;;;4.20;1.00;;;;;;5019739;28;20198;-84
2023/01/31 02:04:53;;;;;;;8.95;2.42;;;4.20;99.90;;;;;;5020852;28;20228;-85
2023/01/31 02:07:20;;;;;;;8.13;2.55;;;4.20;1.00;;;;;;5020488;28;20208;-84
2023/01/31 02:09:53;;;;;;;6.10;2.20;;;4.10;1.00;;;;;;5021847;28;20300;-85
2023/01/31 02:12:22;;;;;;;8.05;2.75;;;4.20;99.90;;;;;;5022421;28;20257;-84
2023/01/31 02:14:50;;;;;;;13.50;2.55;;;4.10;99.90;;;;;;5033448;28;20276;-84
2023/01/31 02:17:19;;;;;;;14.95;2.83;;;4.10;99.90;;;;;;5038059;28;20208;-83
2023/01/31 02:19:57;;;;;;;4.47;2.47;;;4.20;99.90;;;;;;5037294;28;20180;-84
2023/01/31 02:22:27;;;;;;;10.95;3.40;;;4.20;99.90;;;;;;5021127;28;20195;-85
2023/01/31 02:25:22;;;;;;;11.23;3.42;;;4.20;46.00;;;;;;5021371;28;20231;-84
2023/01/31 02:28:25;;;;;;;7.00;2.70;;;4.10;1.00;;;;;;5021104;28;20257;-84
2023/01/31 02:31:40;;;;;;;9.88;2.65;;;4.20;99.90;;;;;;5018447;28;20736;-83
2023/01/31 02:34:14;;;;;;;4.78;2.65;;;4.20;1.00;;;;;;5024647;28;20200;-83
2023/01/31 02:36:53;;;;;;;6.03;2.47;;;4.20;1.00;;;;;;5027775;28;20228;-83
2023/01/31 02:39:28;;;;;;;8.73;2.40;;;4.20;99.90;;;;;;5025878;28;20647;-84
2023/01/31 02:42:05;;;;;;;8.73;2.55;;;4.20;1.00;;;;;;5023649;28;20200;-84
2023/01/31 02:47:33;;;;;;;4.53;2.25;;;4.20;99.90;;;;;;5022841;28;20208;-84
2023/01/31 02:50:06;;;;;;;5.53;2.13;;;4.10;13.00;;;;;;5022922;28;20196;-83
2023/01/31 02:52:39;;;;;;;12.65;2.63;;;4.10;2.80;;;;;;5028329;28;20212;-84
2023/01/31 02:57:59;;;;;;;7.63;2.63;;;4.00;99.90;;;;;;5019128;28;20192;-82
2023/01/31 03:00:28;;;;;;;4.03;2.00;;;3.90;99.90;;;;;;5019246;28;20204;-82
2023/01/31 03:02:56;;;;;;;9.55;2.60;;;3.80;62.10;;;;;;5022195;28;20200;-85
2023/01/31 03:05:25;;;;;;;8.80;2.70;;;3.70;99.90;;;;;;5022217;28;20259;-84
2023/01/31 03:07:55;;;;;;;7.18;4.35;;;3.70;1.00;;;;;;5021496;28;20205;-82
2023/01/31 03:10:38;;;;;;;7.22;1.92;;;3.70;99.90;;;;;;5022014;28;20295;-84
2023/01/31 03:13:31;;;;;;;6.45;2.50;;;3.60;4.20;;;;;;5021295;28;20195;-83
2023/01/31 03:19:01;;;;;;;5.60;2.55;;;3.50;99.90;;;;;;5020855;28;20188;-83
2023/01/31 03:21:33;;;;;;;8.55;2.20;;;3.50;99.90;;;;;;5020400;28;20220;-84
2023/01/31 03:24:02;;;;;;;7.30;2.05;;;3.40;99.90;;;;;;5020312;28;20197;-83
2023/01/31 03:26:29;;;;;;;8.88;2.50;;;3.40;1.00;;;;;;5020686;28;20224;-83
2023/01/31 03:29:00;;;;;;;11.85;2.50;;;3.40;1.00;;;;;;5021083;28;20211;-83
2023/01/31 03:31:30;;;;;;;9.98;2.60;;;3.50;99.90;;;;;;5020649;28;20295;-83
2023/01/31 03:34:00;;;;;;;5.65;2.17;;;3.40;77.70;;;;;;5020974;28;20276;-84
2023/01/31 03:36:35;;;;;;;7.65;2.17;;;3.50;99.90;;;;;;5021818;28;20221;-83
2023/01/31 03:39:11;;;;;;;14.35;3.15;;;3.40;1.00;;;;;;5024066;28;20264;-84
2023/01/31 03:41:48;;;;;;;5.70;2.13;;;3.30;1.00;;;;;;5021524;28;20194;-83
2023/01/31 03:44:23;;;;;;;4.05;1.75;;;3.40;3.80;;;;;;5022487;28;20670;-83
2023/01/31 03:46:54;;;;;;;11.05;3.17;;;3.30;1.00;;;;;;5022025;28;20258;-84
2023/01/31 03:49:24;;;;;;;8.60;3.13;;;3.20;1.00;;;;;;5023687;28;20231;-83
2023/01/31 03:51:58;;;;;;;4.90;2.55;;;3.30;1.00;;;;;;5024831;28;20262;-84
2023/01/31 03:54:30;;;;;;;9.98;3.10;;;3.30;1.00;;;;;;5027164;28;20271;-84
2023/01/31 03:57:01;;;;;;;8.55;2.50;;;3.30;1.00;;;;;;5026305;28;20663;-84
2023/01/31 03:59:32;;;;;;;8.32;2.40;;;3.30;99.90;;;;;;5026701;28;20199;-84
2023/01/31 04:02:04;;;;;;;8.95;2.60;;;3.20;1.00;;;;;;5026957;28;20189;-84
2023/01/31 04:04:35;;;;;;;13.63;1.90;;;3.30;99.90;;;;;;5026269;28;20272;-84
2023/01/31 04:07:05;;;;;;;8.20;3.63;;;3.20;99.90;;;;;;5026905;28;20189;-85
2023/01/31 04:09:32;;;;;;;12.40;2.63;;;3.20;99.90;;;;;;5034764;28;20204;-81
2023/01/31 04:12:00;;;;;;;6.07;2.92;;;3.20;99.90;;;;;;5041678;28;20199;-83
2023/01/31 04:14:27;;;;;;;11.70;5.03;;;3.20;99.90;;;;;;5041641;28;20207;-82
2023/01/31 04:16:54;;;;;;;11.93;2.63;;;3.40;1.00;;;;;;5038097;28;20341;-85
2023/01/31 04:19:21;;;;;;;8.55;2.85;;;3.20;99.90;;;;;;5030073;28;20300;-84
2023/01/31 04:21:48;;;;;;;14.18;3.55;;;3.10;99.90;;;;;;5027862;28;20801;-84
2023/01/31 04:24:16;;;;;;;7.20;2.53;;;3.10;99.90;;;;;;5027216;28;20200;-85
2023/01/31 04:26:43;;;;;;;8.18;2.65;;;3.10;1.00;;;;;;5027482;28;20221;-84
2023/01/31 04:29:10;;;;;;;8.43;3.17;;;3.10;1.00;;;;;;5027705;28;20272;-84
2023/01/31 04:31:36;;;;;;;6.40;2.72;;;3.10;1.00;;;;;;5029076;28;20220;-85
2023/01/31 04:34:03;;;;;;;16.55;3.85;;;3.30;1.00;;;;;;5030986;28;20228;-83
2023/01/31 04:36:30;;;;;;;10.70;3.28;;;3.10;1.00;;;;;;5026941;28;20234;-84
2023/01/31 04:38:57;;;;;;;6.72;2.45;;;3.10;96.90;;;;;;5027048;28;20205;-86
2023/01/31 04:41:25;;;;;;;10.88;2.47;;;3.10;1.00;;;;;;5025172;28;20300;-85
2023/01/31 04:43:52;;;;;;;6.78;2.58;;;3.10;1.00;;;;;;5025257;28;20204;-84
2023/01/31 04:46:19;;;;;;;5.43;2.67;;;3.00;1.00;;;;;;5024866;28;20258;-84
2023/01/31 04:48:46;;;;;;;8.82;2.70;;;3.00;91.40;;;;;;5024701;28;20215;-84
2023/01/31 04:51:13;;;;;;;8.73;3.17;;;3.00;42.30;;;;;;5026654;28;20220;-85
2023/01/31 04:53:39;;;;;;;8.70;3.35;;;2.90;99.90;;;;;;5025139;28;20579;-84
2023/01/31 04:56:07;;;;;;;4.15;2.20;;;2.90;99.90;;;;;;5024362;28;20225;-84
2023/01/31 04:58:35;;;;;;;8.70;3.30;;;3.30;99.90;;;;;;5029283;28;20192;-80
2023/01/31 05:01:02;;;;;;;8.32;2.65;;;3.00;99.90;;;;;;5027190;28;20247;-84
2023/01/31 05:03:29;;;;;;;4.20;2.10;;;3.00;99.90;;;;;;5034659;28;20204;-84
2023/01/31 05:05:56;;;;;;;8.73;3.88;;;3.20;99.90;;;;;;5038265;28;20224;-82
2023/01/31 05:08:23;;;;;;;9.52;2.92;;;2.90;99.90;;;;;;5037955;28;20693;-82
2023/01/31 05:10:50;;;;;;;5.82;2.78;;;3.00;99.90;;;;;;5035006;28;20212;-84
2023/01/31 05:13:16;;;;;;;11.48;2.60;;;2.90;57.30;;;;;;5036305;28;20267;-83
2023/01/31 05:15:48;;;;;;;7.38;2.42;;;3.00;99.90;;;;;;5032260;28;20228;-85
2023/01/31 05:18:15;;;;;;;5.68;2.97;;;3.00;99.90;;;;;;5025357;28;20256;-84
2023/01/31 05:20:42;;;;;;;9.05;2.20;;;3.00;99.90;;;;;;5025787;28;20718;-85
2023/01/31 05:23:09;;;;;;;11.63;2.50;;;2.90;99.90;;;;;;5025584;28;20258;-83
2023/01/31 05:25:37;;;;;;;11.95;3.00;;;3.00;99.90;;;;;;5025598;28;20227;-84
2023/01/31 05:28:05;;;;;;;9.13;3.47;;;3.00;99.90;;;;;;5026139;28;20699;-84
2023/01/31 05:30:31;;;;;;;4.15;2.53;;;3.00;1.00;;;;;;5037401;28;20231;-83
2023/01/31 05:32:59;;;;;;;11.48;3.40;;;2.90;99.90;;;;;;5033693;28;20285;-84
2023/01/31 05:35:27;;;;;;;9.77;2.45;;;3.10;1.00;;;;;;5029361;28;20786;-84
2023/01/31 05:37:54;;;;;;;12.27;2.85;;;3.00;1.00;;;;;;5027396;28;20204;-84
2023/01/31 05:40:21;;;;;;;7.82;2.83;;;3.10;1.00;;;;;;5027076;28;20247;-84
2023/01/31 05:42:54;;;;;;;13.02;3.72;;;3.10;1.00;;;;;;5026748;28;20208;-83
2023/01/31 05:45:21;;;;;;;14.10;2.83;;;3.20;99.90;;;;;;5047712;22;20275;-77
2023/01/31 05:47:48;;;;;;;7.28;2.45;;;3.20;99.90;;;;;;5015919;28;20204;-78
2023/01/31 05:50:17;;;;;;;11.82;2.92;;;3.30;99.90;;;;;;5015559;28;20207;-77
2023/01/31 05:52:49;;;;;;;5.97;2.65;;;3.40;99.90;;;;;;5015719;28;20224;-78
2023/01/31 05:55:16;;;;;;;14.45;2.25;;;3.50;99.90;;;;;;5015729;28;20308;-78
2023/01/31 05:57:43;;;;;;;12.35;3.70;;;3.50;1.00;;;;;;5016524;28;20578;-77
2023/01/31 06:00:11;;;;;;;6.95;2.65;;;3.60;1.00;;;;;;5016526;28;20200;-79
2023/01/31 06:02:38;;;;;;;9.02;3.17;;;3.60;1.00;;;;;;5017166;28;20284;-78
2023/01/31 06:05:06;;;;;;;7.75;2.92;;;2.50;99.90;;;;;;5015645;28;20299;-78
2023/01/31 06:07:34;;;;;;;11.10;4.10;;;3.70;53.40;;;;;;5017704;28;20346;-79
2023/01/31 06:10:01;;;;;;;19.88;7.97;;;3.70;1.00;;;;;;5038932;28;20249;-77
2023/01/31 06:12:28;;;;;;;10.57;4.30;;;3.90;99.90;;;;;;5028068;28;20315;-78
2023/01/31 06:14:55;;;;;;;10.07;4.15;;;3.90;96.80;;;;;;5016766;28;20208;-78
2023/01/31 06:17:22;;;;;;;12.55;2.97;;;3.70;9.60;;;;;;5018104;28;20223;-78
2023/01/31 06:19:50;;;;;;;5.90;2.95;;;3.70;99.90;;;;;;5015933;28;20261;-78
2023/01/31 06:22:17;;;;;;;26.23;5.03;;;3.70;99.90;;;;;;5017150;28;20211;-78
2023/01/31 06:24:45;;;;;;;8.63;3.35;;;3.80;99.90;;;;;;5023164;28;20236;-78
2023/01/31 06:27:12;;;;;;;10.15;2.90;;;3.70;99.90;;;;;;5026271;28;20263;-79
2023/01/31 06:29:39;;;;;;;5.38;3.05;;;3.70;87.50;;;;;;5021588;28;20264;-79
2023/01/31 06:32:06;;;;;;;17.52;3.45;;;3.70;99.90;;;;;;5015908;28;20603;-78
2023/01/31 06:34:33;;;;;;;12.98;3.85;;;3.70;99.90;;;;;;5015743;28;20258;-79
2023/01/31 06:37:00;;;;;;;15.80;2.80;;;3.70;99.90;;;;;;5015956;28;20221;-79
2023/01/31 06:39:26;;;;;;;8.57;2.63;;;3.80;99.90;;;;;;5014901;28;20649;-78
2023/01/31 06:41:55;;;;;;;12.85;3.47;;;3.80;99.90;;;;;;5015043;28;20200;-78
2023/01/31 06:44:21;;;;;;;8.63;3.63;;;3.80;90.10;;;;;;5015930;28;20240;-78
2023/01/31 06:46:48;;;;;;;9.35;2.75;;;3.80;95.00;;;;;;5015111;28;20318;-78
2023/01/31 06:49:15;;;;;;;16.00;2.55;;;3.90;99.90;;;;;;5015097;28;20216;-78
2023/01/31 06:51:42;;;;;;;17.08;5.65;;;3.90;99.90;;;;;;5015273;28;20600;-78
2023/01/31 06:54:08;;;;;;;10.82;2.92;;;3.90;1.00;;;;;;5016035;28;20205;-78
2023/01/31 06:56:35;;;;;;;8.55;2.70;;;3.90;38.90;;;;;;5020112;28;20235;-79
2023/01/31 06:59:03;;;;;;;10.93;3.40;;;4.00;99.90;;;;;;5023975;28;20197;-80
2023/01/31 07:01:30;;;;;;;7.70;2.53;;;4.00;30.90;;;;;;5024407;28;20213;-80
2023/01/31 07:03:57;;;;;;;7.10;2.40;;;4.00;99.90;;;;;;5019697;28;20210;-79
2023/01/31 07:06:24;;;;;;;8.38;3.05;;;4.00;99.90;;;;;;5021146;28;20221;-80
2023/01/31 07:08:51;;;;;;;17.23;3.70;;;4.00;99.90;;;;;;5018330;28;20295;-80
2023/01/31 07:11:18;;;;;;;7.13;3.17;;;4.10;99.90;;;;;;5016882;28;20268;-79
2023/01/31 07:13:46;;;;;;;13.90;2.42;;;4.00;99.90;;;;;;5016565;28;20259;-80
2023/01/31 07:16:15;;;;;;;7.72;3.00;;;3.90;1.00;;;;;;5016814;28;20725;-80
2023/01/31 07:18:42;;;;;;;5.82;2.33;;;4.00;1.00;;;;;;5015058;28;20211;-79
2023/01/31 07:21:09;;;;;;;10.00;3.13;;;4.10;1.00;;;;;;5015677;28;20303;-79
2023/01/31 07:23:36;;;;;;;7.05;2.70;;;4.00;1.00;;;;;;5015945;28;20222;-79
2023/01/31 07:26:06;;;;;;;11.70;3.20;;;3.90;1.00;;;;;;5015467;28;20232;-78
2023/01/31 07:28:33;;;;;;;10.93;4.88;;;4.20;1.00;;;;;;5016625;28;20240;-80
2023/01/31 07:31:05;;;;;;;9.25;3.10;;;4.10;1.00;;;;;;5014430;28;20226;-78
2023/01/31 07:33:33;;;;;;;9.25;2.97;;;4.10;1.00;;;;;;5014252;28;20212;-77
2023/01/31 07:36:03;;;;;;;16.60;3.88;;;4.10;1.00;;;;;;5013395;28;20230;-77
2023/01/31 07:38:30;;;;;;;6.30;2.40;;;4.10;1.00;;;;;;5013827;28;20219;-77
2023/01/31 07:40:59;;;;;;;8.25;3.08;;;4.10;1.00;;;;;;5013197;28;20204;-78
2023/01/31 07:43:26;;;;;;;9.00;3.55;;;4.10;1.00;;;;;;5013275;28;20196;-77
2023/01/31 07:45:53;;;;;;;12.20;3.10;;;4.00;1.00;;;;;;5013421;28;20306;-79
2023/01/31 07:48:22;;;;;;;11.68;3.95;;;4.10;1.00;;;;;;5014013;28;20215;-78
2023/01/31 07:50:50;;;;;;;10.38;3.47;;;4.10;1.00;;;;;;5013670;28;20243;-78
2023/01/31 07:53:17;;;;;;;15.20;2.78;;;4.10;1.00;;;;;;5013779;28;20230;-78
2023/01/31 07:55:46;;;;;;;6.30;3.35;;;4.10;1.00;;;;;;5013856;28;20228;-77
2023/01/31 07:58:13;;;;;;;8.55;2.78;;;4.20;1.00;;;;;;5013304;28;20312;-77
2023/01/31 08:03:35;;;;;;;9.77;3.03;;;4.20;1.00;;;;;;5013615;28;20184;-77
2023/01/31 08:06:08;;;;;;;11.13;4.30;;;4.20;1.00;;;;;;5013160;28;20232;-77
2023/01/31 08:08:35;;;;;;;5.88;3.03;;;4.30;1.00;;;;;;5013312;28;20212;-78
2023/01/31 08:11:03;;;;;;;8.90;2.95;;;4.40;1.00;;;;;;5013191;28;20220;-76
2023/01/31 08:13:30;;;;;;;10.15;3.70;;;4.30;1.00;;;;;;5013302;28;20687;-77
2023/01/31 08:15:57;;;;;;;6.88;2.83;;;4.40;1.00;;;;;;5015385;28;20221;-77
2023/01/31 08:18:24;;;;;;;13.23;2.92;;;4.40;1.00;;;;;;5016172;28;20290;-77
2023/01/31 08:20:51;;;;;;;8.55;2.97;;;4.40;99.90;;;;;;5014891;28;20211;-77
2023/01/31 08:23:20;;;;;;;8.23;3.50;;;4.40;1.00;;;;;;5013782;28;20556;-76
2023/01/31 08:25:47;;;;;;;10.63;4.30;;;4.50;99.90;;;;;;5013097;28;20714;-77
2023/01/31 08:28:14;;;;;;;9.52;3.72;;;4.50;1.00;;;;;;5013352;28;20208;-78
2023/01/31 08:30:41;;;;;;;12.45;2.60;;;4.40;1.00;;;;;;5013169;28;20698;-77
2023/01/31 08:33:08;;;;;;;4.28;2.20;;;4.50;1.00;;;;;;5013251;28;20311;-77
2023/01/31 08:35:35;;;;;;;7.75;2.33;;;4.40;74.20;;;;;;5026378;28;20280;-77
2023/01/31 08:38:03;;;;;;;8.35;3.35;;;4.40;98.40;;;;;;5036726;28;20239;-77
2023/01/31 08:40:31;;;;;;;9.90;3.97;;;4.40;99.90;;;;;;5033975;28;20296;-77
2023/01/31 08:43:00;;;;;;;8.50;2.95;;;4.40;99.90;;;;;;5017524;28;20613;-78
2023/01/31 08:45:28;;;;;;;10.90;2.45;;;4.30;99.90;;;;;;5016641;28;20236;-77
2023/01/31 08:47:55;;;;;;;3.63;2.17;;;4.40;99.90;;;;;;5016072;28;20219;-77
2023/01/31 08:50:23;;;;;;;8.30;3.47;;;4.40;99.90;;;;;;5016569;28;20621;-77
2023/01/31 08:52:54;;;;;;;7.82;3.67;;;4.30;99.90;;;;;;5016473;28;20232;-77
2023/01/31 08:55:21;;;;;;;9.65;3.60;;;4.40;99.90;;;;;;5016688;28;20224;-77
2023/01/31 08:57:50;;;;;;;6.80;3.83;;;4.40;99.90;;;;;;5016131;28;20207;-77
2023/01/31 09:00:19;;;;;;;7.53;2.70;;;4.40;99.90;;;;;;5016153;28;20204;-77
2023/01/31 09:02:52;;;;;;;11.90;3.55;;;4.40;99.90;;;;;;5015989;28;20205;-78
2023/01/31 09:05:19;;;;;;;19.75;5.80;;;4.50;99.90;;;;;;5015957;28;20229;-78
2023/01/31 09:07:46;;;;;;;15.93;6.53;;;4.50;50.90;;;;;;5016835;28;20588;-77
2023/01/31 09:10:13;;;;;;;17.98;5.60;;;4.50;80.30;;;;;;5016095;28;20204;-77
2023/01/31 09:12:39;;;;;;;14.48;5.55;;;4.60;21.50;;;;;;5018798;28;20228;-77
2023/01/31 09:15:09;;;;;;;22.70;8.60;;;4.80;99.90;;;;;;5016323;28;20212;-76
2023/01/31 09:17:35;;;;;;;9.88;4.63;;;4.50;12.70;;;;;;5015876;28;20205;-77
2023/01/31 09:20:05;;;;;;;17.25;4.70;;;4.40;1.00;;;;;;5019086;28;20209;-77
2023/01/31 09:22:32;;;;;;;17.05;6.80;;;4.60;1.00;;;;;;5016302;28;20618;-77
2023/01/31 09:24:59;;;;;;;14.02;6.28;;;4.70;1.00;;;;;;5016120;28;20210;-77
2023/01/31 09:27:27;;;;;;;10.50;4.75;;;4.60;1.00;;;;;;5030685;28;20215;-77
2023/01/31 09:29:54;;;;;;;16.33;5.53;;;4.60;1.00;;;;;;5025428;28;20212;-77
2023/01/31 09:32:22;;;;;;;11.68;4.88;;;4.60;1.00;;;;;;5021331;28;20288;-77
2023/01/31 09:34:50;;;;;;;12.73;5.05;;;4.70;1.00;;;;;;5020325;28;20215;-78
2023/01/31 09:37:17;;;;;;;9.43;4.03;;;4.70;1.00;;;;;;5018070;28;20223;-78
2023/01/31 09:39:43;;;;;;;11.90;3.95;;;4.70;99.90;;;;;;5018901;28;20702;-80
2023/01/31 09:42:18;;;;;;;12.82;3.97;;;4.80;99.90;;;;;;5027408;28;20208;-77
2023/01/31 09:44:52;;;;;;;9.20;3.10;;;4.80;99.90;;;;;;5027920;28;20188;-76
2023/01/31 09:47:27;;;;;;;20.88;6.00;;;4.80;1.00;;;;;;5026537;28;20188;-77
2023/01/31 09:49:59;;;;;;;10.82;4.50;;;4.90;1.00;;;;;;5017669;28;20215;-78
2023/01/31 09:52:27;;;;;;;11.80;4.75;;;4.90;1.00;;;;;;5016191;28;20196;-78
2023/01/31 09:54:55;;;;;;;11.25;4.40;;;4.90;1.00;;;;;;5015882;28;20209;-77
2023/01/31 09:57:32;;;;;;;13.60;5.35;;;5.00;1.00;;;;;;5015966;28;20205;-78
2023/01/31 10:00:10;;;;;;;16.67;4.75;;;5.00;1.00;;;;;;5015497;28;20639;-77
2023/01/31 10:02:59;;;;;;;18.23;4.72;;;5.10;99.90;;;;;;5015891;28;20191;-78
2023/01/31 10:05:33;;;;;;;10.35;4.88;;;5.10;79.40;;;;;;5015164;28;20225;-77
2023/01/31 10:08:09;;;;;;;12.43;4.53;;;5.10;54.50;;;;;;5015496;28;20201;-78
2023/01/31 10:10:39;;;;;;;8.18;3.03;;;5.10;1.00;;;;;;5015147;28;20188;-77
2023/01/31 10:13:12;;;;;;;15.70;4.25;;;5.10;99.90;;;;;;5015514;28;20225;-78
2023/01/31 10:15:43;;;;;;;11.38;3.85;;;5.20;1.00;;;;;;5016004;28;20358;-79
2023/01/31 10:18:16;;;;;;;8.50;4.28;;;5.20;1.00;;;;;;5015977;28;20192;-78
2023/01/31 10:20:48;;;;;;;9.95;3.70;;;5.20;1.00;;;;;;5015720;28;20195;-78
2023/01/31 10:23:22;;;;;;;9.50;3.75;;;5.30;99.90;;;;;;5015326;28;20185;-77
2023/01/31 10:25:53;;;;;;;13.63;4.00;;;5.40;1.00;;;;;;5015955;28;20781;-77
2023/01/31 10:28:25;;;;;;;12.07;3.78;;;5.30;1.00;;;;;;5015813;28;20195;-77
2023/01/31 10:30:59;;;;;;;10.82;3.85;;;5.40;1.00;;;;;;5015665;28;20199;-77
2023/01/31 10:33:34;;;;;;;12.27;4.10;;;5.40;1.00;;;;;;5015044;28;20205;-77
2023/01/31 10:36:04;;;;;;;8.80;3.58;;;5.40;99.90;;;;;;5014731;28;20231;-78
2023/01/31 10:38:40;;;;;;;6.75;3.15;;;5.40;99.90;;;;;;5014533;28;20185;-77
2023/01/31 10:41:13;;;;;;;11.60;3.30;;;5.30;1.00;;;;;;5013954;28;20192;-77
2023/01/31 10:43:49;;;;;;;14.18;3.58;;;5.30;2.00;;;;;;5014422;28;20189;-77
2023/01/31 10:46:16;;;;;;;7.25;3.03;;;5.20;99.90;;;;;;5013760;28;20234;-78
2023/01/31 10:48:47;;;;;;;10.10;4.03;;;5.10;1.00;;;;;;5014172;28;20200;-78
2023/01/31 10:51:32;;;;;;;13.13;4.15;;;5.20;1.00;;;;;;5014663;28;20215;-78
2023/01/31 10:54:17;;;;;;;15.40;3.85;;;5.00;1.00;;;;;;5014277;28;20209;-78
2023/01/31 10:56:47;;;;;;;10.63;4.05;;;5.20;1.00;;;;;;5014426;28;20314;-78
2023/01/31 10:59:20;;;;;;;11.57;4.88;;;5.30;1.00;;;;;;5014337;28;20200;-77
2023/01/31 11:01:47;;;;;;;11.68;4.10;;;5.30;99.90;;;;;;5013720;28;20212;-78
2023/01/31 11:04:34;;;;;;;9.43;4.85;;;5.40;99.90;;;;;;5014022;28;20205;-77
2023/01/31 11:07:02;;;;;;;11.30;3.80;;;5.50;99.90;;;;;;5013951;28;20238;-77
2023/01/31 11:09:33;;;;;;;10.25;4.65;;;5.50;1.00;;;;;;5014827;28;20586;-77
2023/01/31 11:12:01;;;;;;;9.27;3.60;;;5.60;1.00;;;;;;5014366;28;20706;-76
2023/01/31 11:14:30;;;;;;;13.48;3.88;;;5.70;85.00;;;;;;5014849;28;20686;-77
2023/01/31 11:17:00;;;;;;;13.15;4.15;;;5.70;1.00;;;;;;5015103;28;20311;-77
2023/01/31 11:19:34;;;;;;;10.13;4.10;;;5.60;1.00;;;;;;5014598;28;20195;-77
2023/01/31 11:22:03;;;;;;;8.23;3.80;;;5.70;99.90;;;;;;5015027;28;20193;-77
2023/01/31 11:24:32;;;;;;;10.65;4.88;;;5.70;1.00;;;;;;5015039;28;20311;-77
2023/01/31 11:27:02;;;;;;;8.77;4.70;;;5.60;67.40;;;;;;5014014;28;20224;-77
2023/01/31 11:29:31;;;;;;;11.52;4.80;;;5.50;1.00;;;;;;5014337;28;20293;-78
2023/01/31 11:32:01;;;;;;;15.25;4.22;;;5.50;99.90;;;;;;5014402;28;20299;-77
2023/01/31 11:34:29;;;;;;;14.50;4.25;;;5.40;99.90;;;;;;5015176;28;20232;-77
2023/01/31 11:37:06;;;;;;;48.67;21.88;;;5.30;1.00;;;;;;5014674;28;20275;-77
2023/01/31 11:39:37;;;;;;;9.32;4.43;;;5.30;55.50;;;;;;5014401;28;20704;-77
2023/01/31 11:42:11;;;;;;;18.48;5.03;;;5.20;48.20;;;;;;5014678;28;20192;-77
2023/01/31 11:44:54;;;;;;;10.57;5.32;;;5.20;99.90;;;;;;5014040;28;20271;-77
2023/01/31 11:47:33;;;;;;;17.75;5.85;;;5.30;99.90;;;;;;5043700;22;20308;-84
2023/01/31 11:50:02;;;;;;;17.48;5.20;;;5.30;80.40;;;;;;5021337;28;20223;-84
2023/01/31 11:52:32;;;;;;;13.43;5.25;;;5.30;88.50;;;;;;5020907;28;20255;-84
2023/01/31 11:55:02;;;;;;;11.30;5.60;;;5.30;99.90;;;;;;5020685;28;20219;-84
2023/01/31 11:57:32;;;;;;;15.40;5.10;;;5.30;99.30;;;;;;5021728;28;20220;-84
2023/01/31 12:00:01;;;;;;;11.52;4.57;;;5.30;12.50;;;;;;5022967;28;20303;-82
2023/01/31 12:02:35;;;;;;;11.70;5.65;;;5.20;1.00;;;;;;5019669;28;20200;-82
2023/01/31 12:05:07;;;;;;;14.52;6.53;;;5.30;1.00;;;;;;5019245;28;20189;-83
2023/01/31 12:07:45;;;;;;;9.77;6.10;;;5.30;1.00;;;;;;5022772;28;20259;-83
2023/01/31 12:10:32;;;;;;;8.25;4.70;;;5.30;1.00;;;;;;5022686;28;20195;-83
2023/01/31 12:13:00;;;;;;;7.93;5.45;;;5.30;1.00;;;;;;5021546;28;20215;-85
2023/01/31 12:15:30;;;;;;;10.27;5.40;;;5.40;99.90;;;;;;5023296;28;20204;-84
2023/01/31 12:18:00;;;;;;;9.32;4.93;;;5.30;99.90;;;;;;5023850;28;20215;-85
2023/01/31 12:20:39;;;;;;;12.88;6.13;;;5.20;99.90;;;;;;5024559;28;20258;-82
2023/01/31 12:23:18;;;;;;;17.27;6.93;;;5.10;99.90;;;;;;5023847;28;20197;-83
2023/01/31 12:26:01;;;;;;;17.40;6.43;;;5.10;99.90;;;;;;5023298;28;20234;-83
2023/01/31 12:28:37;;;;;;;13.05;5.40;;;5.10;99.90;;;;;;5024504;28;20531;-84
2023/01/31 12:31:34;;;;;;;12.85;6.88;;;5.00;99.90;;;;;;5023847;28;20199;-83
2023/01/31 12:34:14;;;;;;;11.35;5.00;;;4.60;1.00;;;;;;5013896;28;20311;-84
2023/01/31 12:36:56;;;;;;;15.68;5.65;;;4.90;1.00;;;;;;5023153;28;20224;-84
2023/01/31 12:39:59;;;;;;;11.93;5.18;;;4.80;1.00;;;;;;5024236;28;20275;-84
2023/01/31 12:42:42;;;;;;;12.13;6.00;;;4.80;1.00;;;;;;5023948;28;20189;-83
2023/01/31 12:45:23;;;;;;;16.73;5.57;;;4.80;1.00;;;;;;5026693;28;20192;-84
2023/01/31 12:48:14;;;;;;;16.77;6.40;;;4.80;1.00;;;;;;5037420;28;20192;-82
2023/01/31 12:50:45;;;;;;;14.32;5.95;;;4.80;1.00;;;;;;5038197;28;20217;-82
2023/01/31 12:53:31;;;;;;;23.90;6.50;;;4.80;1.00;;;;;;5036575;28;20317;-82
2023/01/31 12:56:21;;;;;;;11.82;5.38;;;4.70;1.00;;;;;;5038825;28;20228;-84
2023/01/31 12:58:58;;;;;;;21.20;6.40;;;4.70;1.00;;;;;;5038494;28;20189;-83
2023/01/31 13:01:31;;;;;;;8.52;6.00;;;4.70;1.00;;;;;;5037002;28;20192;-84
2023/01/31 13:04:27;;;;;;;11.75;6.43;;;4.70;1.00;;;;;;5035554;28;20183;-84
2023/01/31 13:06:58;;;;;;;13.80;7.10;;;4.70;1.00;;;;;;5026615;28;20308;-84
2023/01/31 13:09:31;;;;;;;10.50;7.60;;;4.60;1.00;;;;;;5024351;28;20193;-83
2023/01/31 13:12:09;;;;;;;14.07;8.25;;;4.60;1.00;;;;;;5024386;28;20201;-83
2023/01/31 13:14:41;;;;;;;17.90;9.77;;;4.60;1.00;;;;;;5023750;28;20239;-84
2023/01/31 13:17:12;;;;;;;15.80;6.90;;;4.60;1.00;;;;;;5024428;28;20232;-84
2023/01/31 13:19:44;;;;;;;15.90;8.15;;;4.60;1.00;;;;;;5024327;28;20209;-86
2023/01/31 13:22:18;;;;;;;14.43;7.35;;;4.60;1.00;;;;;;5024100;28;20279;-84
2023/01/31 13:24:52;;;;;;;14.23;7.68;;;4.50;1.00;;;;;;5024137;28;20192;-84
2023/01/31 13:27:26;;;;;;;11.15;7.40;;;4.60;1.00;;;;;;5026034;28;20223;-84